Time;durP1;ratioP1;P1;durP2;ratioP2;P2;SDS_P1;SDS_P2;PMS_P1;PMS_P2;Temp;Humidity;BMP_temperature;BMP_pressure;BME280_temperature;BME280_humidity;BME280_pressure;Samples;Min_cycle;Max_cycle;Signal;HPM_P1;HPM_P2
2023/04/14 00:02:39;;;;;;;10.30;5.05;;;;;;;12.44;61.51;98397.69;7764760;32;39869;-83
2023/04/14 00:06:57;;;;;;;10.32;5.37;;;;;;;12.19;61.67;98406.31;7762939;32;38901;-83
2023/04/14 00:11:13;;;;;;;9.43;5.47;;;;;;;11.79;62.96;98398.03;7764683;32;37960;-84
2023/04/14 00:15:29;;;;;;;12.07;5.47;;;;;;;12.24;61.87;98369.81;7764902;32;40481;-83
2023/04/14 00:19:46;;;;;;;8.63;5.15;;;;;;;12.10;62.19;98369.94;7764826;32;39554;-84
2023/04/14 00:24:02;;;;;;;9.82;5.45;;;;;;;12.21;62.02;98362.25;7764597;32;38714;-83
2023/04/14 00:28:18;;;;;;;9.88;5.22;;;;;;;12.12;62.42;98350.50;7764850;32;35509;-84
2023/04/14 00:32:34;;;;;;;9.60;5.37;;;;;;;12.10;62.40;98345.34;7771921;32;39409;-85
2023/04/14 00:36:51;;;;;;;12.50;5.55;;;;;;;11.86;63.04;98344.91;7777617;32;39969;-83
2023/04/14 00:41:07;;;;;;;8.80;5.60;;;;;;;11.79;63.17;98332.53;7791375;32;37970;-83
2023/04/14 00:45:26;;;;;;;8.48;5.55;;;;;;;12.09;62.02;98340.19;7791427;32;37713;-83
2023/04/14 00:49:42;;;;;;;8.45;5.35;;;;;;;12.07;62.02;98335.06;7791615;32;38762;-84
2023/04/14 00:54:01;;;;;;;10.00;5.40;;;;;;;12.23;61.52;98335.44;7790045;32;39935;-83
2023/04/14 00:58:17;;;;;;;10.82;4.93;;;;;;;11.90;62.35;98332.25;7790868;32;38114;-84
2023/04/14 01:02:33;;;;;;;10.98;5.80;;;;;;;12.10;61.28;98330.91;7790978;32;37910;-84
2023/04/14 01:06:50;;;;;;;9.48;5.90;;;;;;;12.22;60.53;98328.34;7791154;32;38942;-84
2023/04/14 01:11:42;;;;;;;12.35;6.10;;;;;;;11.94;60.81;98327.81;7789625;32;39679;-84
2023/04/14 01:16:08;;;;;;;9.95;4.97;;;;;;;12.03;60.71;98326.69;7780736;32;37978;-84
2023/04/14 01:20:30;;;;;;;10.68;5.20;;;;;;;12.28;59.53;98307.97;7791662;32;36926;-84
2023/04/14 01:25:27;;;;;;;10.85;5.32;;;;;;;12.42;58.66;98288.69;7772063;32;39840;-84
2023/04/14 01:30:09;;;;;;;9.05;5.07;;;;;;;12.28;58.76;98304.41;7761050;32;39687;-84
2023/04/14 01:34:35;;;;;;;10.45;5.40;;;;;;;12.25;58.72;98294.94;7787404;32;38027;-83
2023/04/14 01:38:52;;;;;;;9.55;5.05;;;;;;;12.17;59.10;98295.72;7793890;32;37234;-83
2023/04/14 01:43:11;;;;;;;8.32;4.93;;;;;;;12.20;58.18;98292.34;7792687;32;40161;-83
2023/04/14 01:47:28;;;;;;;7.75;4.75;;;;;;;12.32;57.51;98273.41;7792689;32;40125;-84
2023/04/14 01:51:45;;;;;;;9.77;4.65;;;;;;;11.88;58.62;98258.81;7791133;32;38626;-85
2023/04/14 01:56:02;;;;;;;9.05;4.82;;;;;;;12.15;57.96;98249.59;7766534;32;37124;-84
2023/04/14 02:00:19;;;;;;;10.77;4.90;;;;;;;12.08;57.85;98240.28;7765433;32;39277;-85
2023/04/14 02:04:37;;;;;;;9.35;4.65;;;;;;;11.95;58.29;98239.28;7765044;32;40716;-84
2023/04/14 02:08:53;;;;;;;10.82;4.55;;;;;;;12.12;56.87;98230.31;7766352;32;37914;-84
2023/04/14 02:13:11;;;;;;;7.03;4.45;;;;;;;12.34;56.70;98224.69;7766147;32;37271;-84
2023/04/14 02:17:29;;;;;;;8.57;4.82;;;;;;;12.26;56.47;98224.69;7765283;32;38628;-84
2023/04/14 02:21:48;;;;;;;7.37;4.12;;;;;;;12.17;56.62;98224.69;7766575;32;40073;-84
2023/04/14 02:26:11;;;;;;;11.85;4.72;;;;;;;12.22;56.40;98208.13;7764989;32;37358;-84
2023/04/14 02:30:36;;;;;;;8.40;4.43;;;;;;;11.96;57.08;98203.44;7764679;32;37281;-83
2023/04/14 02:35:02;;;;;;;7.00;4.15;;;;;;;12.21;56.05;98195.59;7766158;32;39276;-83
2023/04/14 02:39:31;;;;;;;7.62;4.15;;;;;;;12.07;56.68;98198.47;7764937;32;40865;-83
2023/04/14 02:43:52;;;;;;;8.85;4.28;;;;;;;11.98;56.79;98184.81;7764713;32;38033;-84
2023/04/14 02:48:11;;;;;;;7.82;4.47;;;;;;;11.97;56.96;98166.84;7765883;32;37046;-84
2023/04/14 02:52:30;;;;;;;7.90;4.28;;;;;;;12.00;56.58;98168.12;7765548;32;39873;-84
2023/04/14 02:56:46;;;;;;;7.78;4.50;;;;;;;11.74;56.80;98168.84;7765817;32;39781;-83
2023/04/14 03:01:03;;;;;;;7.00;3.80;;;;;;;11.87;57.06;98166.31;7764381;32;38524;-82
2023/04/14 03:05:20;;;;;;;10.15;4.22;;;;;;;12.12;54.98;98184.66;7764511;32;37084;-83
2023/04/14 03:09:37;;;;;;;10.98;4.55;;;;;;;11.82;56.28;98200.03;7765635;32;39247;-84
2023/04/14 03:13:55;;;;;;;9.85;4.55;;;;;;;12.33;55.50;98200.41;7764132;32;40692;-83
2023/04/14 03:18:13;;;;;;;10.18;4.53;;;;;;;12.33;55.67;98193.03;7764430;32;37231;-83
2023/04/14 03:22:30;;;;;;;7.70;4.03;;;;;;;12.13;55.60;98189.00;7791023;32;37713;-83
2023/04/14 03:26:48;;;;;;;7.80;3.90;;;;;;;12.36;54.82;98181.44;7791635;32;39258;-83
2023/04/14 03:31:05;;;;;;;6.60;3.85;;;;;;;12.39;54.26;98180.00;7791230;32;39683;-83
2023/04/14 03:35:22;;;;;;;9.50;4.45;;;;;;;12.52;53.77;98178.22;7791365;32;37956;-83
2023/04/14 03:39:39;;;;;;;7.47;3.87;;;;;;;12.40;53.70;98176.94;7792530;32;37738;-83
2023/04/14 03:43:56;;;;;;;6.07;3.72;;;;;;;12.12;54.75;98183.88;7791437;32;39317;-83
2023/04/14 03:48:17;;;;;;;7.20;4.00;;;;;;;11.93;55.58;98187.69;7791288;32;39275;-83
2023/04/14 03:52:35;;;;;;;9.30;3.92;;;;;;;11.61;55.88;98181.53;7767128;32;37912;-83
2023/04/14 03:56:55;;;;;;;5.40;3.53;;;;;;;12.33;54.23;98162.97;7764175;32;38060;-84
2023/04/14 04:01:13;;;;;;;6.53;3.83;;;;;;;12.45;53.48;98167.75;7763989;32;39366;-83
2023/04/14 04:05:29;;;;;;;8.73;4.30;;;;;;;12.32;53.57;98136.78;7765022;32;39869;-84
2023/04/14 04:09:47;;;;;;;9.55;3.95;;;;;;;12.37;53.43;98144.81;7764952;32;38327;-84
2023/04/14 04:14:05;;;;;;;6.87;3.37;;;;;;;12.28;53.15;98145.94;7764828;32;37790;-84
2023/04/14 04:18:24;;;;;;;8.10;3.22;;;;;;;12.56;52.29;98149.91;7751334;32;39492;-83
2023/04/14 04:22:43;;;;;;;7.53;3.70;;;;;;;12.61;51.93;98165.34;7765480;32;40686;-84
2023/04/14 04:27:00;;;;;;;8.27;4.25;;;;;;;12.55;52.05;98229.50;7763554;32;37252;-84
2023/04/14 04:31:17;;;;;;;6.18;3.60;;;;;;;11.52;56.85;98229.84;7778469;32;37305;-84
2023/04/14 04:35:35;;;;;;;6.87;3.67;;;;;;;11.92;56.28;98224.34;7790284;32;38956;-83
2023/04/14 04:39:51;;;;;;;10.30;4.07;;;;;;;11.94;56.68;98216.63;7788489;32;40825;-84
2023/04/14 04:44:08;;;;;;;8.07;3.87;;;;;;;12.44;55.41;98206.38;7790575;32;38592;-84
2023/04/14 04:48:25;;;;;;;7.47;3.92;;;;;;;12.48;54.73;98183.53;7791204;32;36187;-84
2023/04/14 04:52:41;;;;;;;6.57;3.33;;;;;;;12.35;55.03;98173.59;7789230;32;39234;-84
2023/04/14 04:56:58;;;;;;;6.78;3.92;;;;;;;12.59;54.58;98167.62;7791159;32;40739;-83
2023/04/14 05:01:17;;;;;;;6.07;3.30;;;;;;;12.58;54.85;98166.00;7790505;32;37852;-84
2023/04/14 05:05:36;;;;;;;6.05;3.70;;;;;;;12.73;53.20;98165.47;7791130;32;38134;-84
2023/04/14 05:09:52;;;;;;;7.03;3.58;;;;;;;12.66;53.32;98173.38;7789337;32;39979;-84
2023/04/14 05:14:09;;;;;;;5.93;3.62;;;;;;;12.92;52.26;98180.72;7790683;32;39959;-85
2023/04/14 05:18:27;;;;;;;6.47;3.30;;;;;;;12.99;51.83;98181.00;7790748;32;37463;-85
2023/04/14 05:22:43;;;;;;;7.65;3.47;;;;;;;12.84;51.46;98178.81;7764570;32;37015;-86
2023/04/14 05:27:00;;;;;;;6.78;3.30;;;;;;;12.84;51.15;98201.47;7763521;32;40443;-84
2023/04/14 05:31:29;;;;;;;7.10;3.35;;;;;;;12.84;51.30;98206.16;7780600;32;40719;-85
2023/04/14 05:35:49;;;;;;;6.47;3.50;;;;;;;12.89;50.68;98205.97;7790314;32;38726;-85
2023/04/14 05:40:06;;;;;;;7.10;3.55;;;;;;;12.97;50.51;98205.16;7780387;32;36366;-85
2023/04/14 05:44:25;;;;;;;5.68;3.42;;;;;;;13.08;50.31;98192.72;7763079;32;39284;-85
2023/04/14 05:48:43;;;;;;;8.55;3.25;;;;;;;13.32;49.61;98199.59;7766105;32;39400;-85
2023/04/14 05:52:59;;;;;;;7.05;3.58;;;;;;;13.37;49.70;98184.94;7789888;32;37922;-85
2023/04/14 05:57:16;;;;;;;6.40;3.30;;;;;;;13.56;49.02;98189.97;7789887;32;36782;-86
2023/04/14 06:01:35;;;;;;;6.07;3.58;;;;;;;13.42;49.06;98182.78;7768519;32;39240;-86
2023/04/14 06:05:52;;;;;;;8.65;3.70;;;;;;;13.36;50.05;98175.88;7764518;32;39817;-85
2023/04/14 06:10:09;;;;;;;8.25;4.28;;;;;;;13.46;50.22;98186.47;7777182;32;37578;-85
2023/04/14 06:14:25;;;;;;;7.32;3.70;;;;;;;13.50;50.66;98184.69;7793570;32;36732;-85
2023/04/14 06:18:41;;;;;;;9.40;3.87;;;;;;;13.36;50.20;98186.84;7790122;32;40034;-86
2023/04/14 06:22:59;;;;;;;6.30;3.70;;;;;;;13.56;49.66;98177.09;7777523;32;41952;-85
2023/04/14 06:27:15;;;;;;;10.50;3.70;;;;;;;13.25;50.62;98174.63;7750583;32;37795;-84
2023/04/14 06:31:34;;;;;;;9.70;4.10;;;;;;;13.37;50.49;98185.72;7771807;32;36456;-85
2023/04/14 06:35:50;;;;;;;10.98;3.53;;;;;;;13.52;50.28;98178.84;7765777;32;39857;-87
2023/04/14 06:40:09;;;;;;;10.00;3.37;;;;;;;13.50;49.37;98175.66;7774516;32;39602;-84
2023/04/14 06:44:26;;;;;;;6.57;3.53;;;;;;;13.84;48.72;98182.84;7769773;32;37879;-87
2023/04/14 06:48:42;;;;;;;7.95;3.53;;;;;;;13.91;48.68;98176.84;7755219;32;37146;-84
2023/04/14 06:52:59;;;;;;;7.05;3.17;;;;;;;14.18;48.02;98166.50;7764166;32;40013;-84
2023/04/14 06:57:15;;;;;;;7.25;3.67;;;;;;;14.38;47.97;98159.41;7758330;32;40033;-84
2023/04/14 07:01:33;;;;;;;6.72;3.70;;;;;;;14.16;48.42;98155.87;7757509;32;37189;-85
2023/04/14 07:05:50;;;;;;;7.28;4.37;;;;;;;14.53;47.60;98158.75;7738663;32;37009;-85
2023/04/14 07:10:06;;;;;;;10.30;3.78;;;;;;;14.52;47.99;98159.91;7764794;32;39191;-85
2023/04/14 07:14:27;;;;;;;6.78;3.42;;;;;;;14.27;47.84;98154.31;7779365;32;40767;-85
2023/04/14 07:18:44;;;;;;;7.85;3.85;;;;;;;14.94;46.61;98143.34;7767768;32;37664;-85
2023/04/14 07:23:00;;;;;;;7.65;3.40;;;;;;;14.94;45.43;98135.13;7778859;32;37808;-85
2023/04/14 07:27:16;;;;;;;6.45;3.58;;;;;;;14.78;46.58;98140.47;7764678;32;39841;-85
2023/04/14 07:31:36;;;;;;;10.75;4.15;;;;;;;14.45;46.67;98137.72;7765451;32;40200;-85
2023/04/14 07:35:53;;;;;;;7.03;4.30;;;;;;;14.43;46.85;98137.25;7779059;32;37100;-84
2023/04/14 07:40:19;;;;;;;10.00;4.07;;;;;;;14.68;45.08;98129.94;7769163;32;37835;-84
2023/04/14 07:44:35;;;;;;;8.48;3.97;;;;;;;14.57;44.97;98125.97;7764525;32;39976;-85
2023/04/14 07:48:54;;;;;;;10.73;4.07;;;;;;;14.24;46.48;98133.06;7792287;32;39361;-87
2023/04/14 07:53:10;;;;;;;9.13;4.10;;;;;;;14.22;46.02;98127.13;7791800;32;37583;-84
2023/04/14 07:57:33;;;;;;;10.00;4.28;;;;;;;13.89;47.44;98136.09;7790451;32;37506;-85
2023/04/14 08:01:54;;;;;;;12.68;4.37;;;;;;;14.79;45.05;98133.03;7785178;32;40024;-83
2023/04/14 08:06:16;;;;;;;8.17;4.00;;;;;;;14.90;44.19;98134.22;7741988;32;831100;-84
2023/04/14 08:10:33;;;;;;;7.22;4.15;;;;;;;14.68;45.20;98131.84;7779657;32;37900;-84
2023/04/14 08:14:55;;;;;;;12.18;4.53;;;;;;;14.90;44.58;98133.41;7773255;32;37091;-84
2023/04/14 08:19:14;;;;;;;6.93;3.80;;;;;;;14.99;45.33;98132.16;7768938;32;39065;-82
2023/04/14 08:23:32;;;;;;;8.20;4.22;;;;;;;15.20;45.38;98115.59;7769163;32;39877;-81
2023/04/14 08:27:50;;;;;;;7.22;4.20;;;;;;;15.11;44.44;98114.09;7763421;32;38224;-82
2023/04/14 08:32:12;;;;;;;14.03;4.27;;;;;;;15.44;44.50;98124.97;7772438;32;37041;-82
2023/04/14 08:36:30;;;;;;;7.87;3.92;;;;;;;15.34;44.39;98128.16;7786175;32;39250;-81
2023/04/14 08:40:52;;;;;;;9.48;4.25;;;;;;;15.08;45.33;98144.97;7787472;32;39857;-81
2023/04/14 08:45:11;;;;;;;10.52;4.47;;;;;;;14.87;45.23;98156.00;7761993;32;37642;-81
2023/04/14 08:49:34;;;;;;;9.98;4.40;;;;;;;15.30;44.72;98141.00;7762593;32;37385;-81
2023/04/14 08:53:52;;;;;;;8.00;4.37;;;;;;;14.92;45.14;98148.37;7764214;32;39250;-81
2023/04/14 08:58:11;;;;;;;8.82;4.35;;;;;;;14.92;44.84;98148.37;7762356;32;39969;-82
2023/04/14 09:02:33;;;;;;;7.82;4.10;;;;;;;14.83;45.42;98134.78;7764091;32;38057;-81
2023/04/14 09:06:55;;;;;;;7.65;4.47;;;;;;;15.03;46.96;98124.03;7763258;32;36905;-81
2023/04/14 09:11:12;;;;;;;8.27;4.62;;;;;;;14.81;46.51;98125.25;7756399;32;39445;-82
2023/04/14 09:15:29;;;;;;;9.60;4.93;;;;;;;14.83;47.91;98129.28;7735227;32;40715;-82
2023/04/14 09:19:47;;;;;;;8.75;5.07;;;;;;;15.01;47.92;98118.87;7741602;32;37692;-81
2023/04/14 09:24:28;;;;;;;7.78;4.40;;;;;;;14.70;48.80;98129.59;7762141;32;37371;-81
2023/04/14 09:28:47;;;;;;;8.90;4.72;;;;;;;14.56;50.56;98152.62;7762397;32;40209;-81
2023/04/14 09:33:17;;;;;;;8.82;5.32;;;;;;;15.09;49.42;98149.31;7762471;32;39937;-81
2023/04/14 09:37:44;;;;;;;12.02;5.47;;;;;;;14.99;53.40;98153.31;7763374;32;37852;-81
2023/04/14 09:42:04;;;;;;;9.70;5.15;;;;;;;15.04;51.66;98158.59;7766183;32;36916;-81
2023/04/14 09:46:22;;;;;;;9.75;5.15;;;;;;;14.79;53.46;98155.78;7766871;32;38707;-81
2023/04/14 09:50:57;;;;;;;10.20;5.30;;;;;;;14.98;55.24;98157.97;7766795;32;39971;-82
2023/04/14 09:55:15;;;;;;;12.40;5.72;;;;;;;15.03;55.36;98152.28;7749035;32;38500;-81
2023/04/14 09:59:36;;;;;;;10.85;5.40;;;;;;;14.88;53.94;98163.91;7746829;32;37273;-81
2023/04/14 10:04:00;;;;;;;10.13;5.82;;;;;;;14.43;55.00;98183.84;7748238;32;39989;-81
2023/04/14 10:08:18;;;;;;;9.38;5.72;;;;;;;13.95;56.45;98185.22;7760274;32;39743;-80
2023/04/14 10:12:34;;;;;;;10.75;6.20;;;;;;;13.79;58.37;98188.53;7756414;32;37936;-81
2023/04/14 10:16:51;;;;;;;11.23;6.50;;;;;;;13.50;61.42;98168.28;7752792;32;38012;-81
2023/04/14 10:21:08;;;;;;;11.55;6.00;;;;;;;13.34;62.60;98178.16;7756184;32;40433;-81
2023/04/14 10:25:30;;;;;;;12.55;6.62;;;;;;;13.20;62.28;98175.62;7754465;32;40466;-81
2023/04/14 10:29:46;;;;;;;14.43;7.03;;;;;;;13.60;61.88;98171.75;7757498;32;37656;-81
2023/04/14 10:34:14;;;;;;;10.98;6.03;;;;;;;13.80;61.68;98159.22;7758515;32;37174;-80
2023/04/14 10:38:41;;;;;;;11.18;6.15;;;;;;;13.46;62.60;98172.00;7757179;32;39351;-80
2023/04/14 10:42:58;;;;;;;13.57;5.75;;;;;;;12.95;63.95;98161.72;7756927;32;40426;-81
2023/04/14 10:47:23;;;;;;;14.23;6.87;;;;;;;13.60;63.10;98149.84;7757927;32;38122;-80
2023/04/14 10:51:40;;;;;;;12.40;6.70;;;;;;;13.39;64.52;98150.59;7755492;32;37063;-81
2023/04/14 10:56:01;;;;;;;12.35;6.40;;;;;;;13.29;64.01;98151.75;7757381;32;39314;-80
2023/04/14 11:00:24;;;;;;;11.85;6.57;;;;;;;13.50;63.26;98162.78;7755304;32;40807;-81
2023/04/14 11:04:57;;;;;;;13.82;7.37;;;;;;;13.36;63.98;98164.94;7759261;32;37694;-81
2023/04/14 11:09:30;;;;;;;12.60;7.35;;;;;;;13.26;64.80;98173.50;7762185;32;37925;-81
2023/04/14 11:14:08;;;;;;;12.57;7.75;;;;;;;13.17;64.97;98186.41;7763581;32;39438;-81
2023/04/14 11:18:32;;;;;;;13.70;7.60;;;;;;;13.30;65.22;98171.72;7763610;32;39915;-81
2023/04/14 11:22:49;;;;;;;13.70;7.80;;;;;;;13.54;64.15;98171.16;7764576;32;37616;-82
2023/04/14 11:27:09;;;;;;;13.35;7.00;;;;;;;13.03;65.76;98170.22;7764513;32;37858;-80
2023/04/14 11:31:26;;;;;;;14.90;7.00;;;;;;;13.30;65.32;98158.03;7762402;32;39295;-81
2023/04/14 11:35:42;;;;;;;12.10;7.18;;;;;;;13.40;65.14;98148.66;7775923;32;40109;-81
2023/04/14 11:39:59;;;;;;;15.18;7.50;;;;;;;13.33;65.59;98149.19;7760874;32;38591;-80
2023/04/14 11:44:18;;;;;;;10.73;6.20;;;;;;;13.64;64.68;98150.78;7764842;32;37209;-78
2023/04/14 11:48:37;;;;;;;11.18;7.10;;;;;;;13.59;67.16;98154.53;7764531;32;39989;-81
2023/04/14 11:52:56;;;;;;;13.10;6.72;;;;;;;13.79;65.22;98154.88;7765275;32;40911;-81
2023/04/14 11:57:13;;;;;;;12.25;7.18;;;;;;;13.85;64.93;98142.59;7764464;32;37626;-81
2023/04/14 12:01:30;;;;;;;12.35;7.00;;;;;;;13.67;66.14;98144.62;7758955;32;37090;-81
2023/04/14 12:05:55;;;;;;;11.70;7.28;;;;;;;13.79;65.86;98141.19;7745380;32;39917;-81
2023/04/14 12:10:12;;;;;;;12.43;8.05;;;;;;;13.47;66.53;98149.75;7736867;32;40655;-81
2023/04/14 12:14:28;;;;;;;13.02;7.35;;;;;;;13.17;67.40;98148.13;7737251;32;39328;-81
2023/04/14 12:18:45;;;;;;;12.27;6.95;;;;;;;13.32;67.41;98144.84;7736086;32;37054;-81
2023/04/14 12:23:03;;;;;;;12.95;7.62;;;;;;;13.31;67.68;98143.19;7737908;32;39398;-81
2023/04/14 12:27:24;;;;;;;12.68;7.32;;;;;;;13.27;67.89;98134.06;7735803;32;39211;-81
2023/04/14 12:31:43;;;;;;;12.68;7.62;;;;;;;13.02;68.50;98124.84;7736670;32;37951;-81
2023/04/14 12:36:10;;;;;;;12.75;7.75;;;;;;;13.35;67.50;98127.78;7737246;32;37021;-81
2023/04/14 12:40:38;;;;;;;13.70;7.70;;;;;;;12.83;69.60;98112.38;7736136;32;39565;-81
2023/04/14 12:44:59;;;;;;;20.92;7.68;;;;;;;13.13;68.40;98109.66;7736392;32;39622;-81
2023/04/14 12:49:36;;;;;;;13.18;7.22;;;;;;;13.19;68.29;98104.81;7736840;32;37889;-80
2023/04/14 12:54:04;;;;;;;11.18;6.35;;;;;;;13.18;67.98;98101.28;7737469;32;36922;-81
2023/04/14 12:58:23;;;;;;;12.15;6.28;;;;;;;12.78;69.08;98104.34;7736681;32;39542;-81
2023/04/14 13:02:42;;;;;;;12.65;6.95;;;;;;;12.95;68.72;98101.53;7736974;32;39929;-80
2023/04/14 13:07:02;;;;;;;8.60;5.20;;;;;;;12.57;69.91;98110.53;7736841;32;38615;-82
2023/04/14 13:11:19;;;;;;;10.07;5.03;;;;;;;12.21;70.33;98103.53;7735113;32;36893;-81
2023/04/14 13:15:35;;;;;;;9.68;5.10;;;;;;;12.20;69.70;98107.38;7741771;32;40034;-81
2023/04/14 13:20:12;;;;;;;8.32;4.47;;;;;;;12.32;69.12;98103.97;7744829;32;40239;-81
2023/04/14 13:24:28;;;;;;;9.95;4.18;;;;;;;12.24;69.03;98107.53;7745184;32;37743;-81
2023/04/14 13:28:44;;;;;;;9.48;4.93;;;;;;;11.90;69.68;98097.41;7745388;32;37255;-81
2023/04/14 13:33:03;;;;;;;8.80;3.80;;;;;;;12.13;69.52;98101.59;7745335;32;38666;-81
2023/04/14 13:37:20;;;;;;;7.85;4.10;;;;;;;12.47;68.23;98110.06;7744965;32;39986;-81
2023/04/14 13:41:38;;;;;;;6.05;2.87;;;;;;;12.56;68.39;98119.84;7747013;32;37892;-81
2023/04/14 13:45:58;;;;;;;3.15;2.47;;;;;;;12.17;68.64;98124.41;7764389;32;37735;-81
2023/04/14 13:50:16;;;;;;;3.65;1.60;;;;;;;11.68;67.80;98129.19;7764514;32;39289;-81
2023/04/14 13:54:34;;;;;;;2.80;1.50;;;;;;;11.67;65.81;98145.91;7768489;32;39895;-81
2023/04/14 13:58:53;;;;;;;2.28;1.67;;;;;;;11.31;67.15;98152.41;7745624;32;37590;-81
2023/04/14 14:03:09;;;;;;;1.83;1.50;;;;;;;11.72;65.36;98162.13;7743701;32;37052;-80
2023/04/14 14:07:26;;;;;;;1.55;1.40;;;;;;;11.24;67.12;98163.75;7744671;32;39378;-80
2023/04/14 14:11:43;;;;;;;1.52;1.42;;;;;;;11.36;67.08;98160.44;7744430;32;40628;-80
2023/04/14 14:16:02;;;;;;;1.70;1.60;;;;;;;11.03;66.88;98168.97;7744465;32;38557;-81
2023/04/14 14:20:18;;;;;;;1.77;1.52;;;;;;;11.14;67.73;98172.22;7742792;32;37661;-81
2023/04/14 14:24:35;;;;;;;2.33;2.00;;;;;;;11.50;66.30;98161.09;7743555;32;40150;-81
2023/04/14 14:28:51;;;;;;;3.20;1.95;;;;;;;11.97;67.13;98146.91;7739198;32;40774;-82
2023/04/14 14:33:07;;;;;;;4.40;2.15;;;;;;;12.08;67.02;98170.06;7739255;32;37960;-82
2023/04/14 14:37:23;;;;;;;5.00;2.65;;;;;;;12.29;66.29;98166.66;7745310;32;37775;-82
2023/04/14 14:41:40;;;;;;;6.15;2.80;;;;;;;12.57;66.25;98175.31;7737012;32;40028;-82
2023/04/14 14:45:56;;;;;;;7.65;2.50;;;;;;;12.78;65.69;98181.72;7737185;32;39879;-82
2023/04/14 14:50:13;;;;;;;2.55;1.62;;;;;;;12.90;65.27;98188.41;7749357;32;37833;-81
2023/04/14 14:54:30;;;;;;;1.58;1.23;;;;;;;12.91;65.23;98190.84;7750406;32;37070;-82
2023/04/14 14:58:46;;;;;;;3.28;2.08;;;;;;;12.69;64.57;98200.03;7749498;32;40910;-81
2023/04/14 15:03:04;;;;;;;1.70;1.48;;;;;;;12.81;64.00;98210.31;7749558;32;40144;-81
2023/04/14 15:07:20;;;;;;;1.95;1.50;;;;;;;12.89;63.65;98214.19;7747688;32;37765;-81
2023/04/14 15:11:36;;;;;;;3.12;1.60;;;;;;;12.51;61.49;98212.16;7749111;32;38506;-82
2023/04/14 15:15:54;;;;;;;2.42;1.65;;;;;;;12.44;61.61;98209.09;7749937;32;40298;-80
2023/04/14 15:20:11;;;;;;;1.75;1.50;;;;;;;12.39;62.31;98216.31;7758420;32;39954;-81
2023/04/14 15:24:27;;;;;;;1.45;1.35;;;;;;;11.68;63.90;98238.38;7760125;32;38706;-82
2023/04/14 15:28:44;;;;;;;4.57;1.70;;;;;;;11.44;64.91;98249.72;7760357;32;36972;-82
2023/04/14 15:33:02;;;;;;;3.50;1.90;;;;;;;11.61;65.15;98238.84;7763877;32;38854;-82
2023/04/14 15:37:18;;;;;;;1.60;1.40;;;;;;;11.90;64.62;98253.88;7764390;32;39970;-81
2023/04/14 15:41:35;;;;;;;1.50;1.40;;;;;;;11.76;66.22;98266.81;7765469;32;37908;-81
2023/04/14 15:45:51;;;;;;;5.28;1.48;;;;;;;12.00;65.03;98267.25;7765313;32;37108;-81
2023/04/14 15:50:08;;;;;;;3.05;1.62;;;;;;;12.07;65.42;98261.31;7765380;32;40035;-82
2023/04/14 15:54:25;;;;;;;2.83;1.25;;;;;;;12.14;65.50;98279.94;7765297;32;40140;-81
2023/04/14 15:58:41;;;;;;;1.48;1.37;;;;;;;12.19;65.30;98274.34;7764032;32;37989;-81
2023/04/14 16:03:00;;;;;;;1.50;1.40;;;;;;;12.06;66.19;98283.50;7765091;32;37721;-81
2023/04/14 16:07:16;;;;;;;2.22;1.83;;;;;;;12.21;64.95;98278.37;7765283;32;40063;-81
2023/04/14 16:11:33;;;;;;;4.80;2.92;;;;;;;11.79;65.22;98285.31;7764546;32;39911;-82
2023/04/14 16:15:49;;;;;;;6.68;3.33;;;;;;;11.85;65.04;98286.78;7765021;32;37902;-81
2023/04/14 16:20:06;;;;;;;6.95;4.35;;;;;;;11.91;64.80;98296.47;7755077;32;37886;-81
2023/04/14 16:24:22;;;;;;;7.45;3.55;;;;;;;11.86;65.04;98306.69;7737916;32;39090;-81
2023/04/14 16:28:38;;;;;;;9.63;3.28;;;;;;;11.76;64.90;98302.31;7737751;32;39763;-81
2023/04/14 16:32:54;;;;;;;7.00;3.45;;;;;;;11.95;64.24;98308.37;7738311;32;38728;-81
2023/04/14 16:37:10;;;;;;;5.50;2.87;;;;;;;11.94;63.74;98323.13;7747838;32;37032;-81
2023/04/14 16:41:29;;;;;;;5.32;2.80;;;;;;;11.73;63.77;98322.88;7764784;32;39520;-80
2023/04/14 16:45:45;;;;;;;3.67;2.75;;;;;;;11.62;64.21;98338.72;7761210;32;39997;-81
2023/04/14 16:50:01;;;;;;;5.35;2.90;;;;;;;11.58;63.50;98348.66;7737097;32;37991;-81
2023/04/14 16:54:18;;;;;;;4.72;2.10;;;;;;;11.49;63.57;98358.72;7737507;32;37015;-82
2023/04/14 16:58:35;;;;;;;3.90;2.55;;;;;;;11.01;63.32;98364.84;7758663;32;39150;-81
2023/04/14 17:02:52;;;;;;;2.47;1.83;;;;;;;11.02;62.65;98369.97;7764439;32;39905;-81
2023/04/14 17:07:09;;;;;;;3.17;1.98;;;;;;;11.12;61.62;98371.63;7764179;32;37835;-82
2023/04/14 17:11:25;;;;;;;1.77;1.67;;;;;;;10.62;62.52;98380.69;7763908;32;37864;-82
2023/04/14 17:15:45;;;;;;;1.50;1.40;;;;;;;10.37;62.71;98384.78;7764323;32;40624;-82
2023/04/14 17:20:09;;;;;;;1.65;1.50;;;;;;;10.38;61.95;98394.56;7754079;32;40083;-83
2023/04/14 17:24:25;;;;;;;2.53;1.48;;;;;;;10.22;61.44;98395.97;7736801;32;39516;-81
2023/04/14 17:28:41;;;;;;;1.60;1.50;;;;;;;10.30;61.85;98400.72;7748953;32;37801;-81
2023/04/14 17:32:58;;;;;;;1.50;1.40;;;;;;;10.06;63.14;98409.88;7770446;32;39315;-83
2023/04/14 17:37:14;;;;;;;2.62;1.77;;;;;;;9.58;64.21;98415.66;7754540;32;39632;-80
2023/04/14 17:41:30;;;;;;;1.80;1.60;;;;;;;9.63;64.17;98422.94;7752716;32;37790;-81
2023/04/14 17:45:49;;;;;;;3.20;1.85;;;;;;;9.48;64.04;98429.44;7784140;32;37002;-79
2023/04/14 17:50:06;;;;;;;2.10;1.90;;;;;;;9.70;62.34;98429.59;7763242;32;40288;-81
2023/04/14 17:54:22;;;;;;;2.08;1.90;;;;;;;9.27;64.31;98443.34;7763029;32;40075;-83
2023/04/14 17:58:38;;;;;;;2.17;1.98;;;;;;;9.17;64.37;98436.16;7788805;32;38555;-81
2023/04/14 18:02:57;;;;;;;2.28;2.03;;;;;;;8.97;64.33;98445.44;7776121;32;36973;-81
2023/04/14 18:07:15;;;;;;;2.12;1.92;;;;;;;9.56;63.11;98461.41;7754103;32;40229;-81
2023/04/14 18:11:31;;;;;;;2.92;2.10;;;;;;;9.59;63.23;98460.81;7757774;32;38621;-81
2023/04/14 18:15:49;;;;;;;3.33;2.40;;;;;;;9.64;63.47;98463.47;7758284;32;38678;-80
2023/04/14 18:20:06;;;;;;;2.92;2.40;;;;;;;9.51;63.11;98475.88;7759589;32;37189;-80
2023/04/14 18:24:23;;;;;;;4.65;2.72;;;;;;;8.97;64.73;98483.50;7764062;32;39208;-78
2023/04/14 18:28:42;;;;;;;5.03;2.62;;;;;;;9.34;64.25;98490.03;7757421;32;40269;-81
2023/04/14 18:32:59;;;;;;;6.43;3.15;;;;;;;9.29;64.47;98500.97;7762384;32;38649;-82
2023/04/14 18:37:16;;;;;;;5.53;3.15;;;;;;;9.07;65.19;98517.91;7757445;32;37024;-81
2023/04/14 18:41:32;;;;;;;6.18;3.42;;;;;;;9.21;63.65;98528.84;7760413;32;39048;-79
2023/04/14 18:45:49;;;;;;;4.22;3.37;;;;;;;9.05;65.18;98530.16;7758630;32;39962;-80
2023/04/14 18:50:06;;;;;;;4.93;3.20;;;;;;;9.28;63.91;98526.56;7759700;32;38531;-80
2023/04/14 18:54:24;;;;;;;5.18;3.30;;;;;;;9.51;63.68;98534.94;7756942;32;36440;-79
2023/04/14 18:58:40;;;;;;;6.43;4.00;;;;;;;9.26;64.86;98536.94;7757821;32;39294;-81
2023/04/14 19:02:56;;;;;;;8.55;5.45;;;;;;;9.37;65.30;98548.47;7759083;32;40739;-80
2023/04/14 19:07:13;;;;;;;6.57;3.55;;;;;;;9.52;65.28;98541.97;7757401;32;37961;-81
2023/04/14 19:11:34;;;;;;;5.55;3.55;;;;;;;9.61;65.54;98548.41;7758061;32;37106;-81
2023/04/14 19:15:51;;;;;;;3.12;2.62;;;;;;;9.48;65.12;98551.84;7758992;32;40012;-81
2023/04/14 19:20:08;;;;;;;3.83;2.60;;;;;;;9.83;63.12;98546.94;7761141;32;39911;-80
2023/04/14 19:24:25;;;;;;;2.95;2.00;;;;;;;9.28;63.71;98547.50;7760642;32;37557;-80
2023/04/14 19:28:44;;;;;;;2.47;2.08;;;;;;;8.68;62.90;98546.09;7745154;32;36193;-80
2023/04/14 19:33:01;;;;;;;3.35;1.90;;;;;;;8.64;61.98;98567.59;7760630;32;38669;-80
2023/04/14 19:37:17;;;;;;;1.80;1.70;;;;;;;8.69;61.62;98579.50;7771019;32;40019;-81
2023/04/14 19:41:33;;;;;;;2.25;2.05;;;;;;;8.19;61.37;98588.69;7786761;32;37743;-81
2023/04/14 19:45:51;;;;;;;1.87;1.77;;;;;;;7.78;62.65;98589.00;7765269;32;37821;-80
2023/04/14 19:50:07;;;;;;;1.90;1.80;;;;;;;7.92;62.56;98594.59;7763890;32;40069;-79
2023/04/14 19:54:25;;;;;;;2.20;1.98;;;;;;;8.00;62.35;98602.12;7763026;32;40753;-80
2023/04/14 19:58:42;;;;;;;2.25;2.05;;;;;;;7.66;63.53;98626.53;7761119;32;37988;-79
2023/04/14 20:02:59;;;;;;;1.90;1.80;;;;;;;7.77;62.84;98636.22;7762989;32;37018;-81
2023/04/14 20:07:15;;;;;;;2.58;2.28;;;;;;;8.05;62.62;98644.69;7760972;32;39450;-82
2023/04/14 20:11:31;;;;;;;2.70;2.45;;;;;;;8.31;63.02;98655.34;7766399;32;40066;-82
2023/04/14 20:15:48;;;;;;;2.37;2.08;;;;;;;8.41;63.50;98645.22;7763224;32;38592;-82